Terminal Aerodrome Forecast
Issued by NWS

Home | Current Version | Previous Version | Text Only | Print | Product List | Glossary On
Versions: 1 2 3 4 5 6 7 8 9 10 11 12 13
538
FTUS44 KTSA 212320
TAFXNA
TAF
KXNA 212320Z 2200/2224 19007KT P6SM SCT040
     FM220200 18004KT P6SM SCT250
     FM221200 21005KT P6SM SCT050 BKN250 PROB30 2212/2218 5SM -TSRA
      BR BKN050CB
     FM221800 25008KT P6SM SCT050 BKN150
     FM222100 29006KT P6SM VCTS BKN050CB=

USA.gov is the U.S. government's official web portal to all federal, state and local government web resources and services.